createdAt,value
2017-05-24T00:00:36.484Z,12.87
2017-05-24T00:01:37.060Z,12.73
2017-05-24T00:02:37.636Z,12.94
2017-05-24T00:03:38.211Z,12.91
2017-05-24T00:04:38.787Z,12.67
2017-05-24T00:05:39.362Z,12.68
2017-05-24T00:06:39.950Z,12.78
2017-05-24T00:07:40.525Z,12.82
2017-05-24T00:08:41.101Z,12.72
2017-05-24T00:09:41.678Z,12.68
2017-05-24T00:10:42.255Z,12.78
2017-05-24T00:11:42.832Z,12.68
2017-05-24T00:12:43.410Z,12.83
2017-05-24T00:13:43.986Z,13.01
2017-05-24T00:14:44.563Z,12.94
2017-05-24T00:15:45.139Z,12.76
2017-05-24T00:16:45.731Z,12.75
2017-05-24T00:17:46.304Z,12.90
2017-05-24T00:18:46.878Z,12.85
2017-05-24T00:19:47.454Z,12.75
2017-05-24T00:20:48.031Z,12.90
2017-05-24T00:21:48.609Z,12.72
2017-05-24T00:22:49.200Z,12.55
2017-05-24T00:23:49.778Z,12.55
2017-05-24T00:24:50.355Z,12.55
2017-05-24T00:25:50.932Z,12.50
2017-05-24T00:26:51.507Z,12.55
2017-05-24T00:27:52.085Z,12.54
2017-05-24T00:28:52.659Z,12.45
2017-05-24T00:29:53.237Z,12.46
2017-05-24T00:30:53.812Z,12.54
2017-05-24T00:31:54.404Z,12.64
2017-05-24T00:32:54.978Z,12.45
2017-05-24T00:33:55.555Z,12.75
2017-05-24T00:34:56.134Z,12.82
2017-05-24T00:35:56.964Z,12.68
2017-05-24T00:36:57.550Z,12.67
2017-05-24T00:37:58.111Z,12.58
2017-05-24T00:38:58.687Z,12.68
2017-05-24T00:39:59.264Z,12.50
2017-05-24T00:40:59.840Z,12.54
2017-05-24T00:42:00.420Z,12.61
2017-05-24T00:43:00.995Z,12.45
2017-05-24T00:44:01.573Z,12.47
2017-05-24T00:45:02.149Z,12.42
2017-05-24T00:46:02.724Z,12.57
2017-05-24T00:47:03.300Z,12.70
2017-05-24T00:48:03.878Z,12.67
2017-05-24T00:49:04.457Z,12.58
2017-05-24T00:50:05.030Z,12.43
2017-05-24T00:51:05.607Z,12.49
2017-05-24T00:52:06.183Z,12.55
2017-05-24T00:53:06.757Z,12.53
2017-05-24T00:54:07.332Z,12.40
2017-05-24T00:55:07.913Z,12.62
2017-05-24T00:56:08.485Z,12.42
2017-05-24T00:57:09.062Z,12.76
2017-05-24T00:58:09.638Z,12.79
2017-05-24T00:59:10.213Z,12.83
2017-05-24T01:00:11.990Z,12.55
2017-05-24T01:01:12.566Z,12.43
2017-05-24T01:02:13.143Z,12.45
2017-05-24T01:03:13.720Z,12.50
2017-05-24T01:04:14.295Z,12.39
2017-05-24T01:05:14.871Z,12.58
2017-05-24T01:06:15.458Z,12.50
2017-05-24T01:07:16.035Z,12.82
2017-05-24T01:08:16.613Z,12.64
2017-05-24T01:09:17.187Z,12.68
2017-05-24T01:10:17.763Z,12.60
2017-05-24T01:11:18.339Z,12.68
2017-05-24T01:12:18.915Z,12.79
2017-05-24T01:13:19.493Z,12.83
2017-05-24T01:14:20.068Z,12.68
2017-05-24T01:15:20.644Z,12.78
2017-05-24T01:16:21.220Z,12.70
2017-05-24T01:17:21.797Z,12.50
2017-05-24T01:18:22.372Z,12.42
2017-05-24T01:19:22.948Z,12.45
2017-05-24T01:20:23.522Z,12.43
2017-05-24T01:21:24.100Z,12.40
2017-05-24T01:22:24.679Z,12.32
2017-05-24T01:23:25.273Z,12.42
2017-05-24T01:24:25.830Z,12.40
2017-05-24T01:25:26.405Z,12.55
2017-05-24T01:26:26.981Z,12.68
2017-05-24T01:27:27.556Z,12.47
2017-05-24T01:28:28.131Z,12.36
2017-05-24T01:29:28.708Z,12.27
2017-05-24T01:30:29.282Z,12.32
2017-05-24T01:31:29.862Z,12.37
2017-05-24T01:32:30.434Z,12.40
2017-05-24T01:33:31.010Z,12.32
2017-05-24T01:34:31.585Z,12.27
2017-05-24T01:35:32.158Z,12.27
2017-05-24T01:36:32.731Z,12.29
2017-05-24T01:37:33.306Z,12.24
2017-05-24T01:38:33.881Z,12.28
2017-05-24T01:39:34.454Z,12.24
2017-05-24T01:40:35.035Z,12.24
2017-05-24T01:41:35.606Z,12.22
2017-05-24T01:42:36.182Z,12.21
2017-05-24T01:43:36.757Z,12.28
2017-05-24T01:44:37.346Z,12.39
2017-05-24T01:45:37.918Z,12.25
2017-05-24T01:46:38.494Z,12.21
2017-05-24T01:47:39.071Z,12.13
2017-05-24T01:48:39.645Z,12.18
2017-05-24T01:49:40.220Z,12.13
2017-05-24T01:50:40.794Z,12.27
2017-05-24T01:51:41.373Z,12.46
2017-05-24T01:52:41.944Z,12.35
2017-05-24T01:53:42.518Z,12.10
2017-05-24T01:54:43.092Z,12.22
2017-05-24T01:55:43.666Z,12.18
2017-05-24T01:56:44.243Z,12.15
2017-05-24T01:57:44.815Z,12.15
2017-05-24T01:58:45.392Z,12.10
2017-05-24T01:59:45.966Z,12.21
2017-05-24T02:00:46.552Z,12.18
2017-05-24T02:01:47.126Z,12.21
2017-05-24T02:02:47.700Z,12.13
2017-05-24T02:03:48.275Z,12.13
2017-05-24T02:04:48.850Z,12.07
2017-05-24T02:05:49.426Z,12.21
2017-05-24T02:06:50.004Z,12.10
2017-05-24T02:07:50.589Z,12.10
2017-05-24T02:08:51.164Z,12.15
2017-05-24T02:09:51.741Z,12.12
2017-05-24T02:10:52.318Z,12.15
2017-05-24T02:11:52.893Z,12.21
2017-05-24T02:12:53.467Z,12.15
2017-05-24T02:13:54.043Z,12.18
2017-05-24T02:14:54.632Z,12.22
2017-05-24T02:15:55.219Z,12.22
2017-05-24T02:16:55.797Z,12.32
2017-05-24T02:17:56.372Z,12.21
2017-05-24T02:18:56.946Z,12.32
2017-05-24T02:19:57.521Z,12.24
2017-05-24T02:20:58.095Z,12.21
2017-05-24T02:21:58.669Z,12.17
2017-05-24T02:22:59.244Z,12.37
2017-05-24T02:23:59.816Z,12.27
2017-05-24T02:25:00.388Z,12.54
2017-05-24T02:26:00.963Z,12.27
2017-05-24T02:27:01.538Z,12.40
2017-05-24T02:28:02.113Z,12.70
2017-05-24T02:29:02.691Z,12.46
2017-05-24T02:30:03.274Z,12.27
2017-05-24T02:31:03.849Z,12.28
2017-05-24T02:32:04.423Z,12.35
2017-05-24T02:33:05.003Z,12.35
2017-05-24T02:34:05.574Z,12.31
2017-05-24T02:35:06.151Z,12.37
2017-05-24T02:36:06.725Z,12.39
2017-05-24T02:37:07.301Z,12.35
2017-05-24T02:38:07.875Z,12.39
2017-05-24T02:39:08.450Z,12.45
2017-05-24T02:40:09.036Z,12.40
2017-05-24T02:41:09.609Z,12.79
2017-05-24T02:42:10.186Z,12.55
2017-05-24T02:43:10.762Z,12.68
2017-05-24T02:44:11.350Z,12.49
2017-05-24T02:45:11.926Z,12.39
2017-05-24T02:46:12.500Z,12.46
2017-05-24T02:47:13.076Z,12.49
2017-05-24T02:48:13.651Z,12.68
2017-05-24T02:49:14.223Z,12.54
2017-05-24T02:50:14.799Z,12.58
2017-05-24T02:51:15.373Z,12.61
2017-05-24T02:52:15.947Z,12.49
2017-05-24T02:53:16.523Z,12.47
2017-05-24T02:54:17.098Z,12.54
2017-05-24T02:55:17.673Z,12.45
2017-05-24T02:56:18.249Z,12.49
2017-05-24T02:57:18.823Z,12.53
2017-05-24T02:58:19.398Z,12.49
2017-05-24T02:59:19.973Z,12.58
2017-05-24T03:00:20.556Z,12.53
2017-05-24T03:01:21.136Z,12.68
2017-05-24T03:02:21.715Z,12.68
2017-05-24T03:03:22.286Z,12.68
2017-05-24T03:04:22.860Z,12.72
2017-05-24T03:05:23.436Z,12.67
2017-05-24T03:06:24.010Z,12.58
2017-05-24T03:07:24.585Z,12.53
2017-05-24T03:08:25.161Z,12.70
2017-05-24T03:09:25.734Z,12.68
2017-05-24T03:10:26.311Z,12.65
2017-05-24T03:11:26.885Z,12.67
2017-05-24T03:12:27.461Z,12.67
2017-05-24T03:13:28.035Z,12.67
2017-05-24T03:14:28.614Z,12.68
2017-05-24T03:15:29.187Z,12.76
2017-05-24T03:16:29.761Z,12.79
2017-05-24T03:17:30.334Z,12.78
2017-05-24T03:18:30.908Z,13.12
2017-05-24T03:19:31.483Z,12.97
2017-05-24T03:20:32.057Z,12.87
2017-05-24T03:21:32.630Z,12.94
2017-05-24T03:22:33.206Z,12.82
2017-05-24T03:23:33.783Z,12.97
2017-05-24T03:24:34.358Z,12.82
2017-05-24T03:25:34.935Z,12.93
2017-05-24T03:26:35.510Z,12.90
2017-05-24T03:27:36.087Z,12.87
2017-05-24T03:28:36.662Z,12.91
2017-05-24T03:29:37.235Z,12.94
2017-05-24T03:30:37.811Z,13.01
2017-05-24T03:31:38.386Z,12.87
2017-05-24T03:32:38.963Z,12.90
2017-05-24T03:33:39.539Z,12.82
2017-05-24T03:34:40.115Z,12.83
2017-05-24T03:35:40.692Z,12.93
2017-05-24T03:36:41.280Z,12.85
2017-05-24T03:37:41.859Z,12.91
2017-05-24T03:38:42.435Z,12.94
2017-05-24T03:39:43.012Z,12.82
2017-05-24T03:40:43.590Z,12.80
2017-05-24T03:41:44.165Z,12.86
2017-05-24T03:42:44.743Z,13.01
2017-05-24T03:43:45.319Z,12.85
2017-05-24T03:44:45.894Z,12.85
2017-05-24T03:45:46.470Z,12.90
2017-05-24T03:46:47.045Z,12.90
2017-05-24T03:47:47.621Z,12.95
2017-05-24T03:48:48.208Z,12.91
2017-05-24T03:49:48.785Z,12.86
2017-05-24T03:50:49.359Z,12.91
2017-05-24T03:51:49.935Z,12.83
2017-05-24T03:52:50.511Z,12.95
2017-05-24T03:53:51.087Z,12.85
2017-05-24T03:54:51.664Z,12.97
2017-05-24T03:55:52.240Z,12.94
2017-05-24T03:56:52.817Z,12.90
2017-05-24T03:57:53.392Z,12.97
2017-05-24T03:58:53.967Z,12.93
2017-05-24T03:59:54.544Z,12.90
2017-05-24T04:00:55.117Z,12.97
2017-05-24T04:01:55.708Z,13.11
2017-05-24T04:02:56.271Z,13.12
2017-05-24T04:03:56.849Z,13.28
2017-05-24T04:04:57.425Z,13.27
2017-05-24T04:05:57.999Z,13.08
2017-05-24T04:06:58.574Z,12.95
2017-05-24T04:07:59.149Z,12.97
2017-05-24T04:08:59.725Z,13.00
2017-05-24T04:10:00.301Z,12.95
2017-05-24T04:11:00.877Z,12.85
2017-05-24T04:12:01.454Z,12.95
2017-05-24T04:13:02.030Z,13.00
2017-05-24T04:14:02.606Z,12.97
2017-05-24T04:15:03.184Z,12.93
2017-05-24T04:16:03.763Z,12.94
2017-05-24T04:17:04.341Z,13.01
2017-05-24T04:18:04.919Z,12.97
2017-05-24T04:19:05.497Z,13.05
2017-05-24T04:20:06.074Z,12.93
2017-05-24T04:21:06.665Z,12.90
2017-05-24T04:22:07.242Z,12.97
2017-05-24T04:23:07.821Z,12.94
2017-05-24T04:24:08.397Z,13.11
2017-05-24T04:25:08.975Z,12.98
2017-05-24T04:26:09.551Z,12.87
2017-05-24T04:27:10.127Z,12.94
2017-05-24T04:28:10.703Z,12.93
2017-05-24T04:29:11.281Z,12.93
2017-05-24T04:30:11.860Z,13.01
2017-05-24T04:31:12.439Z,13.03
2017-05-24T04:32:13.016Z,13.08
2017-05-24T04:33:13.591Z,13.09
2017-05-24T04:34:14.179Z,12.98
2017-05-24T04:35:14.757Z,13.03
2017-05-24T04:36:15.334Z,12.93
2017-05-24T04:37:15.911Z,12.95
2017-05-24T04:38:16.490Z,13.12
2017-05-24T04:39:17.067Z,13.19
2017-05-24T04:40:17.642Z,13.16
2017-05-24T04:41:18.219Z,13.19
2017-05-24T04:42:18.799Z,13.28
2017-05-24T04:43:19.379Z,13.23
2017-05-24T04:44:19.955Z,13.19
2017-05-24T04:45:20.540Z,13.33
2017-05-24T04:46:21.122Z,13.28
2017-05-24T04:47:21.700Z,13.16
2017-05-24T04:48:22.277Z,13.11
2017-05-24T04:49:22.854Z,13.22
2017-05-24T04:50:23.431Z,13.18
2017-05-24T04:51:24.007Z,13.19
2017-05-24T04:52:24.584Z,13.18
2017-05-24T04:53:25.161Z,13.16
2017-05-24T04:54:25.739Z,13.16
2017-05-24T04:55:26.315Z,13.12
2017-05-24T04:56:26.905Z,13.31
2017-05-24T04:57:27.482Z,13.47
2017-05-24T04:58:28.061Z,13.39
2017-05-24T04:59:28.638Z,13.49
2017-05-24T05:00:29.215Z,13.39
2017-05-24T05:01:29.793Z,13.22
2017-05-24T05:02:30.369Z,13.39
2017-05-24T05:03:30.963Z,13.46
2017-05-24T05:04:31.535Z,13.52
2017-05-24T05:05:32.125Z,13.50
2017-05-24T05:06:32.702Z,13.42
2017-05-24T05:07:33.279Z,13.54
2017-05-24T05:08:33.856Z,13.59
2017-05-24T05:09:34.436Z,13.95
2017-05-24T05:10:35.010Z,14.30
2017-05-24T05:11:35.589Z,14.37
2017-05-24T05:12:36.183Z,14.12
2017-05-24T05:13:36.747Z,14.11
2017-05-24T05:14:37.327Z,14.11
2017-05-24T05:15:37.905Z,14.29
2017-05-24T05:16:38.483Z,14.00
2017-05-24T05:17:39.063Z,13.68
2017-05-24T05:18:39.642Z,13.78
2017-05-24T05:19:40.221Z,13.78
2017-05-24T05:20:40.799Z,13.71
2017-05-24T05:21:41.379Z,13.60
2017-05-24T05:22:41.958Z,13.93
2017-05-24T05:23:42.535Z,14.30
2017-05-24T05:24:43.127Z,14.26
2017-05-24T05:25:43.706Z,14.35
2017-05-24T05:26:44.286Z,13.93
2017-05-24T05:27:44.863Z,14.15
2017-05-24T05:28:45.444Z,14.20
2017-05-24T05:29:46.021Z,14.33
2017-05-24T05:30:46.601Z,14.28
2017-05-24T05:31:47.179Z,14.58
2017-05-24T05:32:47.758Z,14.37
2017-05-24T05:33:48.337Z,14.66
2017-05-24T05:34:48.917Z,14.30
2017-05-24T05:35:49.509Z,14.29
2017-05-24T05:36:50.087Z,14.29
2017-05-24T05:37:50.667Z,14.40
2017-05-24T05:38:51.246Z,14.47
2017-05-24T05:39:51.826Z,14.32
2017-05-24T05:40:52.404Z,14.47
2017-05-24T05:41:52.983Z,14.54
2017-05-24T05:42:53.565Z,15.07
2017-05-24T05:43:54.144Z,15.06
2017-05-24T05:44:54.724Z,15.24
2017-05-24T05:45:55.302Z,14.92
2017-05-24T05:46:55.881Z,15.03
2017-05-24T05:47:56.463Z,15.39
2017-05-24T05:48:57.038Z,14.62
2017-05-24T05:49:57.617Z,14.72
2017-05-24T05:50:58.196Z,14.53
2017-05-24T05:51:58.777Z,14.79
2017-05-24T05:52:59.356Z,14.68
2017-05-24T05:53:59.935Z,14.59
2017-05-24T05:55:00.514Z,14.55
2017-05-24T05:56:01.096Z,14.92
2017-05-24T05:57:01.675Z,15.25
2017-05-24T05:58:02.254Z,15.40
2017-05-24T05:59:02.834Z,14.72
2017-05-24T06:00:03.414Z,14.79
2017-05-24T06:01:04.004Z,15.00
2017-05-24T06:02:04.586Z,15.28
2017-05-24T06:03:05.164Z,14.96
2017-05-24T06:04:05.743Z,15.03
2017-05-24T06:05:06.322Z,14.99
2017-05-24T06:06:06.902Z,14.84
2017-05-24T06:07:07.484Z,14.82
2017-05-24T06:08:08.064Z,14.92
2017-05-24T06:09:08.657Z,14.99
2017-05-24T06:10:09.236Z,14.99
2017-05-24T06:11:09.816Z,15.00
2017-05-24T06:12:10.422Z,15.22
2017-05-24T06:13:10.991Z,15.19
2017-05-24T06:14:11.571Z,15.14
2017-05-24T06:15:12.165Z,14.99
2017-05-24T06:16:12.744Z,15.11
2017-05-24T06:17:13.324Z,15.21
2017-05-24T06:18:13.902Z,15.35
2017-05-24T06:19:14.482Z,15.18
2017-05-24T06:20:15.063Z,14.94
2017-05-24T06:21:15.641Z,14.88
2017-05-24T06:22:16.220Z,14.97
2017-05-24T06:23:16.813Z,15.02
2017-05-24T06:24:17.389Z,15.21
2017-05-24T06:25:17.968Z,15.06
2017-05-24T06:26:18.550Z,15.07
2017-05-24T06:27:19.128Z,15.14
2017-05-24T06:28:19.708Z,15.06
2017-05-24T06:29:20.289Z,15.07
2017-05-24T06:30:20.869Z,15.11
2017-05-24T06:31:21.449Z,15.28
2017-05-24T06:32:22.028Z,15.42
2017-05-24T06:33:22.622Z,15.29
2017-05-24T06:34:23.202Z,15.15
2017-05-24T06:35:23.780Z,15.22
2017-05-24T06:36:24.360Z,15.17
2017-05-24T06:37:24.942Z,15.19
2017-05-24T06:38:25.520Z,15.59
2017-05-24T06:39:26.098Z,15.25
2017-05-24T06:40:26.678Z,15.15
2017-05-24T06:41:27.259Z,15.17
2017-05-24T06:42:27.841Z,15.04
2017-05-24T06:43:28.421Z,15.04
2017-05-24T06:44:29.000Z,15.27
2017-05-24T06:45:29.582Z,15.11
2017-05-24T06:46:30.160Z,15.35
2017-05-24T06:47:30.742Z,15.33
2017-05-24T06:48:31.322Z,15.25
2017-05-24T06:49:31.903Z,15.25
2017-05-24T06:50:32.485Z,15.17
2017-05-24T06:51:33.065Z,15.07
2017-05-24T06:52:33.644Z,15.07
2017-05-24T06:53:34.225Z,15.10
2017-05-24T06:54:34.805Z,15.11
2017-05-24T06:55:35.385Z,15.17
2017-05-24T06:56:35.966Z,15.18
2017-05-24T06:57:36.559Z,15.02
2017-05-24T06:58:37.138Z,15.06
2017-05-24T06:59:37.720Z,15.10
2017-05-24T07:00:38.299Z,15.31
2017-05-24T07:01:38.878Z,15.97
2017-05-24T07:02:39.460Z,15.90
2017-05-24T07:03:40.039Z,15.59
2017-05-24T07:04:40.619Z,15.51
2017-05-24T07:05:41.199Z,15.40
2017-05-24T07:06:41.778Z,15.36
2017-05-24T07:07:42.359Z,15.72
2017-05-24T07:08:42.939Z,15.46
2017-05-24T07:09:43.531Z,15.33
2017-05-24T07:10:44.113Z,15.33
2017-05-24T07:11:44.692Z,15.44
2017-05-24T07:12:45.274Z,15.35
2017-05-24T07:13:45.853Z,15.54
2017-05-24T07:14:46.431Z,15.49
2017-05-24T07:15:47.011Z,15.31
2017-05-24T07:16:47.591Z,15.25
2017-05-24T07:17:48.172Z,15.39
2017-05-24T07:18:48.753Z,15.65
2017-05-24T07:19:49.333Z,15.31
2017-05-24T07:20:49.913Z,15.31
2017-05-24T07:21:50.493Z,15.35
2017-05-24T07:22:51.072Z,15.37
2017-05-24T07:23:51.651Z,15.59
2017-05-24T07:24:52.231Z,15.83
2017-05-24T07:25:52.811Z,15.80
2017-05-24T07:26:53.392Z,15.67
2017-05-24T07:27:53.973Z,15.55
2017-05-24T07:28:54.555Z,15.61
2017-05-24T07:29:55.131Z,15.68
2017-05-24T07:30:55.713Z,15.57
2017-05-24T07:31:56.291Z,15.40
2017-05-24T07:32:56.870Z,15.57
2017-05-24T07:33:57.450Z,15.65
2017-05-24T07:34:58.031Z,15.97
2017-05-24T07:35:58.611Z,15.97
2017-05-24T07:36:59.194Z,16.28
2017-05-24T07:37:59.774Z,16.61
2017-05-24T07:39:00.354Z,16.26
2017-05-24T07:40:00.945Z,16.36
2017-05-24T07:41:01.539Z,16.13
2017-05-24T07:42:02.131Z,16.13
2017-05-24T07:43:02.709Z,16.51
2017-05-24T07:44:03.302Z,16.54
2017-05-24T07:45:03.884Z,16.29
2017-05-24T07:46:04.464Z,16.20
2017-05-24T07:47:05.045Z,16.13
2017-05-24T07:48:05.627Z,16.26
2017-05-24T07:49:06.207Z,16.32
2017-05-24T07:50:06.785Z,15.92
2017-05-24T07:51:07.366Z,15.68
2017-05-24T07:52:07.946Z,15.70
2017-05-24T07:53:08.529Z,15.79
2017-05-24T07:54:09.108Z,15.82
2017-05-24T07:55:09.691Z,16.24
2017-05-24T07:56:10.291Z,16.17
2017-05-24T07:57:10.851Z,16.39
2017-05-24T07:58:11.432Z,16.24
2017-05-24T07:59:12.016Z,16.33
2017-05-24T08:00:12.593Z,16.49
2017-05-24T08:01:13.174Z,16.51
2017-05-24T08:02:13.755Z,16.32
2017-05-24T08:03:14.336Z,16.20
2017-05-24T08:04:14.917Z,16.33
2017-05-24T08:05:15.496Z,16.09
2017-05-24T08:06:16.090Z,16.16
2017-05-24T08:07:16.672Z,16.35
2017-05-24T08:08:17.253Z,16.20
2017-05-24T08:09:17.835Z,16.41
2017-05-24T08:10:18.416Z,16.38
2017-05-24T08:11:19.007Z,16.43
2017-05-24T08:12:19.579Z,16.42
2017-05-24T08:13:20.169Z,16.32
2017-05-24T08:14:20.751Z,16.35
2017-05-24T08:15:21.332Z,16.28
2017-05-24T08:16:21.927Z,16.28
2017-05-24T08:17:22.510Z,16.36
2017-05-24T08:18:23.090Z,16.50
2017-05-24T08:19:23.670Z,16.53
2017-05-24T08:20:24.250Z,16.53
2017-05-24T08:21:24.832Z,16.49
2017-05-24T08:22:25.414Z,16.86
2017-05-24T08:23:25.996Z,16.83
2017-05-24T08:24:26.576Z,16.38
2017-05-24T08:25:27.159Z,16.28
2017-05-24T08:26:27.740Z,16.56
2017-05-24T08:27:28.319Z,16.97
2017-05-24T08:28:28.912Z,16.93
2017-05-24T08:29:29.494Z,16.97
2017-05-24T08:30:30.073Z,17.15
2017-05-24T08:31:30.656Z,17.42
2017-05-24T08:32:31.249Z,16.97
2017-05-24T08:33:31.842Z,16.86
2017-05-24T08:34:32.422Z,17.14
2017-05-24T08:35:33.004Z,17.08
2017-05-24T08:36:33.584Z,16.93
2017-05-24T08:37:34.165Z,17.11
2017-05-24T08:38:34.746Z,17.51
2017-05-24T08:39:35.328Z,17.29
2017-05-24T08:40:35.920Z,17.33
2017-05-24T08:41:36.502Z,17.39
2017-05-24T08:42:37.083Z,17.44
2017-05-24T08:43:37.678Z,17.56
2017-05-24T08:44:38.259Z,18.07
2017-05-24T08:45:38.839Z,17.76
2017-05-24T08:46:39.419Z,17.54
2017-05-24T08:47:40.003Z,17.30
2017-05-24T08:48:40.582Z,17.30
2017-05-24T08:49:41.162Z,17.41
2017-05-24T08:50:41.745Z,17.70
2017-05-24T08:51:42.327Z,17.60
2017-05-24T08:52:42.909Z,17.56
2017-05-24T08:53:43.491Z,17.70
2017-05-24T08:54:44.074Z,17.79
2017-05-24T08:55:44.658Z,17.86
2017-05-24T08:56:45.240Z,17.98
2017-05-24T08:57:45.820Z,17.72
2017-05-24T08:58:46.403Z,17.64
2017-05-24T08:59:46.984Z,17.98
2017-05-24T09:00:47.566Z,18.13
2017-05-24T09:01:48.148Z,18.10
2017-05-24T09:02:48.729Z,17.94
2017-05-24T09:03:49.313Z,17.82
2017-05-24T09:04:49.895Z,17.71
2017-05-24T09:05:50.477Z,18.01
2017-05-24T09:06:51.061Z,18.11
2017-05-24T09:07:51.642Z,18.49
2017-05-24T09:08:52.224Z,18.23
2017-05-24T09:09:52.806Z,18.20
2017-05-24T09:10:53.389Z,17.90
2017-05-24T09:11:53.971Z,17.82
2017-05-24T09:12:54.567Z,17.51
2017-05-24T09:13:55.147Z,17.52
2017-05-24T09:14:55.730Z,17.90
2017-05-24T09:15:56.310Z,17.64
2017-05-24T09:16:56.892Z,17.79
2017-05-24T09:17:57.477Z,17.74
2017-05-24T09:18:58.060Z,17.64
2017-05-24T09:19:58.640Z,17.68
2017-05-24T09:20:59.224Z,17.89
2017-05-24T09:21:59.806Z,17.68
2017-05-24T09:23:00.390Z,17.89
2017-05-24T09:24:00.972Z,18.00
2017-05-24T09:25:01.566Z,18.03
2017-05-24T09:26:02.149Z,17.95
2017-05-24T09:27:02.731Z,17.85
2017-05-24T09:28:03.313Z,18.25
2017-05-24T09:29:03.896Z,18.19
2017-05-24T09:30:04.482Z,18.38
2017-05-24T09:31:05.063Z,18.58
2017-05-24T09:32:05.645Z,18.37
2017-05-24T09:33:06.240Z,18.00
2017-05-24T09:34:06.823Z,17.94
2017-05-24T09:35:07.409Z,18.43
2017-05-24T09:36:07.992Z,18.20
2017-05-24T09:37:08.574Z,18.00
2017-05-24T09:38:09.159Z,18.58
2017-05-24T09:39:09.743Z,18.62
2017-05-24T09:40:10.325Z,18.74
2017-05-24T09:41:10.910Z,18.49
2017-05-24T09:42:11.494Z,18.45
2017-05-24T09:43:12.077Z,18.37
2017-05-24T09:44:12.659Z,18.15
2017-05-24T09:45:13.244Z,18.35
2017-05-24T09:46:13.825Z,18.62
2017-05-24T09:47:14.407Z,18.49
2017-05-24T09:48:14.993Z,18.73
2017-05-24T09:49:15.575Z,18.62
2017-05-24T09:50:16.157Z,18.33
2017-05-24T09:51:16.740Z,18.15
2017-05-24T09:52:17.320Z,18.22
2017-05-24T09:53:17.904Z,18.25
2017-05-24T09:54:18.486Z,18.52
2017-05-24T09:55:19.069Z,18.40
2017-05-24T09:56:19.663Z,18.75
2017-05-24T09:57:20.246Z,18.65
2017-05-24T09:58:20.829Z,18.75
2017-05-24T09:59:21.427Z,18.62
2017-05-24T10:00:22.007Z,18.41
2017-05-24T10:01:22.591Z,18.77
2017-05-24T10:02:23.174Z,19.07
2017-05-24T10:03:23.768Z,18.56
2017-05-24T10:04:24.351Z,18.75
2017-05-24T10:05:24.933Z,19.16
2017-05-24T10:06:25.519Z,19.26
2017-05-24T10:07:26.102Z,19.44
2017-05-24T10:08:26.685Z,19.31
2017-05-24T10:09:27.273Z,18.93
2017-05-24T10:10:27.852Z,19.04
2017-05-24T10:11:28.436Z,19.00
2017-05-24T10:12:29.029Z,19.02
2017-05-24T10:13:29.614Z,18.88
2017-05-24T10:14:30.196Z,19.66
2017-05-24T10:15:30.781Z,19.74
2017-05-24T10:16:31.362Z,19.69
2017-05-24T10:17:31.959Z,19.27
2017-05-24T10:18:32.544Z,19.56
2017-05-24T10:19:33.130Z,19.76
2017-05-24T10:20:33.726Z,19.55
2017-05-24T10:21:34.310Z,19.36
2017-05-24T10:22:34.894Z,19.02
2017-05-24T10:23:35.478Z,19.45
2017-05-24T10:24:36.061Z,19.82
2017-05-24T10:25:36.644Z,19.52
2017-05-24T10:26:37.228Z,19.19
2017-05-24T10:27:37.811Z,19.36
2017-05-24T10:28:38.394Z,19.77
2017-05-24T10:29:38.978Z,19.21
2017-05-24T10:30:39.563Z,19.24
2017-05-24T10:31:40.147Z,19.58
2017-05-24T10:32:40.732Z,19.55
2017-05-24T10:33:41.316Z,19.47
2017-05-24T10:34:41.902Z,19.59
2017-05-24T10:35:42.485Z,19.77
2017-05-24T10:36:43.074Z,19.64
2017-05-24T10:37:43.653Z,19.47
2017-05-24T10:38:44.237Z,19.95
2017-05-24T10:39:44.820Z,20.28
2017-05-24T10:40:45.405Z,20.07
2017-05-24T10:41:45.989Z,19.54
2017-05-24T10:42:46.573Z,19.86
2017-05-24T10:43:47.158Z,20.29
2017-05-24T10:44:47.740Z,20.41
2017-05-24T10:45:48.325Z,20.18
2017-05-24T10:46:48.909Z,20.40
2017-05-24T10:47:49.492Z,20.22
2017-05-24T10:48:50.077Z,19.37
2017-05-24T10:49:50.661Z,19.81
2017-05-24T10:50:51.245Z,20.06
2017-05-24T10:51:51.830Z,20.18
2017-05-24T10:52:52.414Z,19.92
2017-05-24T10:53:52.996Z,20.28
2017-05-24T10:54:53.580Z,20.51
2017-05-24T10:55:54.167Z,20.62
2017-05-24T10:56:54.762Z,20.24
2017-05-24T10:57:55.347Z,20.22
2017-05-24T10:58:55.929Z,20.19
2017-05-24T10:59:56.513Z,19.77
2017-05-24T11:00:57.100Z,19.79
2017-05-24T11:01:57.685Z,19.71
2017-05-24T11:02:58.267Z,19.94
2017-05-24T11:03:58.852Z,19.86
2017-05-24T11:04:59.435Z,19.41
2017-05-24T11:06:00.019Z,20.10
2017-05-24T11:07:00.605Z,20.29
2017-05-24T11:08:01.193Z,20.48
2017-05-24T11:09:01.773Z,20.26
2017-05-24T11:10:02.359Z,19.94
2017-05-24T11:11:02.946Z,20.06
2017-05-24T11:12:03.526Z,20.07
2017-05-24T11:13:04.113Z,20.02
2017-05-24T11:14:04.695Z,19.58
2017-05-24T11:15:05.280Z,19.39
2017-05-24T11:16:05.863Z,19.47
2017-05-24T11:17:06.446Z,19.49
2017-05-24T11:18:07.031Z,19.58
2017-05-24T11:19:07.615Z,20.02
2017-05-24T11:20:08.200Z,20.26
2017-05-24T11:21:08.787Z,20.39
2017-05-24T11:22:09.368Z,20.40
2017-05-24T11:23:09.952Z,20.72
2017-05-24T11:24:10.538Z,20.96
2017-05-24T11:25:11.122Z,20.67
2017-05-24T11:26:11.703Z,20.58
2017-05-24T11:27:12.299Z,20.00
2017-05-24T11:28:12.882Z,20.04
2017-05-24T11:29:13.467Z,20.18
2017-05-24T11:30:14.051Z,20.52
2017-05-24T11:31:14.634Z,20.21
2017-05-24T11:32:15.216Z,20.22
2017-05-24T11:33:15.813Z,20.22
2017-05-24T11:34:16.394Z,20.21
2017-05-24T11:35:16.977Z,20.40
2017-05-24T11:36:17.576Z,20.02
2017-05-24T11:37:18.159Z,20.48
2017-05-24T11:38:18.756Z,20.10
2017-05-24T11:39:19.340Z,19.70
2017-05-24T11:40:19.922Z,19.69
2017-05-24T11:41:20.505Z,20.06
2017-05-24T11:42:21.088Z,20.62
2017-05-24T11:43:21.684Z,20.37
2017-05-24T11:44:22.272Z,20.75
2017-05-24T11:45:22.852Z,20.19
2017-05-24T11:46:23.434Z,20.02
2017-05-24T11:47:24.020Z,19.81
2017-05-24T11:48:24.603Z,19.94
2017-05-24T11:49:25.188Z,20.09
2017-05-24T11:50:25.771Z,19.64
2017-05-24T11:51:26.355Z,19.99
2017-05-24T11:52:26.942Z,20.14
2017-05-24T11:53:27.523Z,20.10
2017-05-24T11:54:28.108Z,20.26
2017-05-24T11:55:28.697Z,20.29
2017-05-24T11:56:29.278Z,20.07
2017-05-24T11:57:29.861Z,20.19
2017-05-24T11:58:30.446Z,20.25
2017-05-24T11:59:31.030Z,20.39
2017-05-24T12:00:31.612Z,20.41
2017-05-24T12:01:32.202Z,20.65
2017-05-24T12:02:32.783Z,20.74
2017-05-24T12:03:33.365Z,20.58
2017-05-24T12:04:33.952Z,20.60
2017-05-24T12:05:34.536Z,20.81
2017-05-24T12:06:35.119Z,20.93
2017-05-24T12:07:35.703Z,20.92
2017-05-24T12:08:36.300Z,20.82
2017-05-24T12:09:36.884Z,20.58
2017-05-24T12:10:37.470Z,20.50
2017-05-24T12:11:38.054Z,20.29
2017-05-24T12:12:38.640Z,20.62
2017-05-24T12:13:39.226Z,20.66
2017-05-24T12:14:39.810Z,20.50
2017-05-24T12:15:40.395Z,20.28
2017-05-24T12:16:40.980Z,20.06
2017-05-24T12:17:41.563Z,20.06
2017-05-24T12:18:42.146Z,20.40
2017-05-24T12:19:42.731Z,20.69
2017-05-24T12:20:43.315Z,20.41
2017-05-24T12:21:43.899Z,20.29
2017-05-24T12:22:44.483Z,20.51
2017-05-24T12:23:45.068Z,20.75
2017-05-24T12:24:45.664Z,20.81
2017-05-24T12:25:46.259Z,20.50
2017-05-24T12:26:46.844Z,20.65
2017-05-24T12:27:47.429Z,20.62
2017-05-24T12:28:48.013Z,20.65
2017-05-24T12:29:48.599Z,20.60
2017-05-24T12:30:49.183Z,20.47
2017-05-24T12:31:49.767Z,20.65
2017-05-24T12:32:50.353Z,20.62
2017-05-24T12:33:50.937Z,20.65
2017-05-24T12:34:51.521Z,20.58
2017-05-24T12:35:52.102Z,20.36
2017-05-24T12:36:52.686Z,20.26
2017-05-24T12:37:53.272Z,20.47
2017-05-24T12:38:53.854Z,20.43
2017-05-24T12:39:54.458Z,20.37
2017-05-24T12:40:55.042Z,20.28
2017-05-24T12:41:55.626Z,20.40
2017-05-24T12:42:56.208Z,20.31
2017-05-24T12:43:56.792Z,20.03
2017-05-24T12:44:57.375Z,20.00
2017-05-24T12:45:57.957Z,19.96
2017-05-24T12:46:58.541Z,20.28
2017-05-24T12:47:59.124Z,20.00
2017-05-24T12:48:59.708Z,19.86
2017-05-24T12:50:00.293Z,19.88
2017-05-24T12:51:00.875Z,19.96
2017-05-24T12:52:01.458Z,20.02
2017-05-24T12:53:02.042Z,19.88
2017-05-24T12:54:02.627Z,19.81
2017-05-24T12:55:03.218Z,19.95
2017-05-24T12:56:03.793Z,20.04
2017-05-24T12:57:04.374Z,19.95
2017-05-24T12:58:04.958Z,19.82
2017-05-24T12:59:05.542Z,20.02
2017-05-24T13:00:06.123Z,19.73